La Sarre, Canada
Current Conditions -  °F | °C
As of 1:08 PM on Thursday 29 Jan 2015 (Local Time) from CYUY Reporting Station
Overcast Overcast  
Wind Chill:   Ceiling: 800
Heat Index: 19°   Visibility: 1mi
Dew Point: 16°   Wind: 9mph
Humidity: 86%   Direction: 170°S
Pressure: 29.73"   Gusts: NA
Location:  48.8°N, 79.2°W
Report Text: CYUY 291808Z 17008KT 1SM VV008 M07/M09 A2973 RMK SN8 SLP092
Loading
Personal Weather Stations






























Interactive Weather Map New forecast layout! Learn more

10-Day Weather Forecast

Advertisements
Track Severe Weather on mobile